createdAt,value
2018-12-21T00:00:04.137Z,9.30
2018-12-21T00:02:36.767Z,9.20
2018-12-21T00:05:07.607Z,9.30
2018-12-21T00:07:38.861Z,9.20
2018-12-21T00:10:09.598Z,9.20
2018-12-21T00:12:40.447Z,9.20
2018-12-21T00:15:11.379Z,9.20
2018-12-21T00:17:42.767Z,9.20
2018-12-21T00:20:14.588Z,9.20
2018-12-21T00:22:45.743Z,9.10
2018-12-21T00:25:16.482Z,9.10
2018-12-21T00:27:47.283Z,9.10
2018-12-21T00:30:22.801Z,9.10
2018-12-21T00:32:58.417Z,9.10
2018-12-21T00:35:33.817Z,9.10
2018-12-21T00:38:09.550Z,9.10
2018-12-21T00:40:45.238Z,9.10
2018-12-21T00:43:20.997Z,9.10
2018-12-21T00:45:57.624Z,9.10
2018-12-21T00:48:28.422Z,9.10
2018-12-21T00:50:59.117Z,9.10
2018-12-21T00:53:30.097Z,9.00
2018-12-21T00:56:00.792Z,9.00
2018-12-21T00:58:31.598Z,9.10
2018-12-21T01:01:02.505Z,9.10
2018-12-21T01:03:33.447Z,9.00
2018-12-21T01:06:04.107Z,9.00
2018-12-21T01:08:34.992Z,9.10
2018-12-21T01:11:05.803Z,9.00
2018-12-21T01:13:38.744Z,9.00
2018-12-21T01:16:09.492Z,9.00
2018-12-21T01:18:41.307Z,9.00
2018-12-21T01:21:12.812Z,9.00
2018-12-21T01:23:43.717Z,9.00
2018-12-21T01:26:14.447Z,9.00
2018-12-21T01:28:45.346Z,9.00
2018-12-21T01:31:16.032Z,9.00
2018-12-21T01:33:46.817Z,9.00
2018-12-21T01:36:17.492Z,9.00
2018-12-21T01:38:48.226Z,9.00
2018-12-21T01:41:18.901Z,9.10
2018-12-21T01:43:49.676Z,9.10
2018-12-21T01:46:20.398Z,9.00
2018-12-21T01:48:51.180Z,8.90
2018-12-21T01:51:21.847Z,8.90
2018-12-21T01:53:52.752Z,8.90
2018-12-21T01:56:23.457Z,8.90
2018-12-21T01:58:54.317Z,8.90
2018-12-21T02:01:25.015Z,8.90
2018-12-21T02:03:55.817Z,8.90
2018-12-21T02:06:26.507Z,9.00
2018-12-21T02:08:57.328Z,9.00
2018-12-21T02:11:28.084Z,8.90
2018-12-21T02:13:59.938Z,9.00
2018-12-21T02:16:30.653Z,8.90
2018-12-21T02:19:01.818Z,8.90
2018-12-21T02:21:32.543Z,9.00
2018-12-21T02:24:03.546Z,8.90
2018-12-21T02:26:34.203Z,8.80
2018-12-21T02:29:04.993Z,8.90
2018-12-21T02:31:35.653Z,8.90
2018-12-21T02:34:06.443Z,8.90
2018-12-21T02:36:37.290Z,9.00
2018-12-21T02:39:08.723Z,8.90
2018-12-21T02:41:39.394Z,9.00
2018-12-21T02:44:10.194Z,9.00
2018-12-21T02:46:41.033Z,9.00
2018-12-21T02:49:11.760Z,8.90
2018-12-21T02:51:42.803Z,8.90
2018-12-21T02:54:13.673Z,8.90
2018-12-21T02:56:44.455Z,8.90
2018-12-21T02:59:15.203Z,8.90
2018-12-21T03:01:45.919Z,8.90
2018-12-21T03:19:21.972Z,8.90
2018-12-21T03:21:52.676Z,8.90
2018-12-21T03:24:23.518Z,8.90
2018-12-21T03:26:54.243Z,8.90
2018-12-21T03:29:25.072Z,8.90
2018-12-21T03:31:55.784Z,9.00
2018-12-21T03:34:26.530Z,9.00
2018-12-21T03:36:57.283Z,9.00
2018-12-21T03:39:27.989Z,9.00
2018-12-21T03:41:59.785Z,9.00
2018-12-21T03:44:30.489Z,9.00
2018-12-21T03:47:02.459Z,9.00
2018-12-21T03:49:33.329Z,9.00
2018-12-21T03:52:04.083Z,8.90
2018-12-21T03:54:34.739Z,8.90
2018-12-21T03:57:05.516Z,8.80
2018-12-21T03:59:36.288Z,8.90
2018-12-21T04:02:07.300Z,8.90
2018-12-21T04:04:37.995Z,8.90
2018-12-21T04:07:08.804Z,8.90
2018-12-21T04:09:39.485Z,8.90
2018-12-21T04:12:10.183Z,8.90
2018-12-21T04:14:40.886Z,9.00
2018-12-21T04:17:11.628Z,8.90
2018-12-21T04:19:42.863Z,8.90
2018-12-21T04:22:13.732Z,8.90
2018-12-21T04:24:44.978Z,9.00
2018-12-21T04:27:15.618Z,9.10
2018-12-21T04:29:46.364Z,9.00
2018-12-21T04:32:17.024Z,9.00
2018-12-21T04:34:47.978Z,8.90
2018-12-21T04:37:18.904Z,8.90
2018-12-21T04:39:49.664Z,8.90
2018-12-21T04:42:20.333Z,8.90
2018-12-21T04:44:51.103Z,8.80
2018-12-21T04:47:21.748Z,8.90
2018-12-21T04:49:52.503Z,8.90
2018-12-21T04:52:23.575Z,8.90
2018-12-21T04:54:54.299Z,9.00
2018-12-21T04:57:24.979Z,9.00
2018-12-21T04:59:55.748Z,9.00
2018-12-21T05:02:26.438Z,8.90
2018-12-21T05:04:57.218Z,9.00
2018-12-21T05:07:27.887Z,9.00
2018-12-21T05:09:58.659Z,8.90
2018-12-21T05:12:29.440Z,8.90
2018-12-21T05:15:00.259Z,8.90
2018-12-21T05:17:30.923Z,8.90
2018-12-21T05:20:02.069Z,9.00
2018-12-21T05:22:32.869Z,9.00
2018-12-21T05:25:03.658Z,9.10
2018-12-21T05:27:34.433Z,9.10
2018-12-21T05:30:05.318Z,9.10
2018-12-21T05:32:35.983Z,9.10
2018-12-21T05:35:06.864Z,9.20
2018-12-21T05:37:37.558Z,9.10
2018-12-21T05:40:08.665Z,9.10
2018-12-21T05:42:39.339Z,9.10
2018-12-21T05:45:10.188Z,9.20
2018-12-21T05:47:40.858Z,9.10
2018-12-21T05:50:11.624Z,9.10
2018-12-21T05:52:42.518Z,9.00
2018-12-21T05:55:13.322Z,9.10
2018-12-21T05:57:44.034Z,9.20
2018-12-21T06:00:14.859Z,9.10
2018-12-21T06:02:45.599Z,9.20
2018-12-21T06:05:16.364Z,9.10
2018-12-21T06:07:47.168Z,9.00
2018-12-21T06:10:17.968Z,9.10
2018-12-21T06:12:48.660Z,9.00
2018-12-21T06:15:19.418Z,9.00
2018-12-21T06:17:50.099Z,9.10
2018-12-21T06:20:21.245Z,9.00
2018-12-21T06:22:52.243Z,9.00
2018-12-21T06:25:23.040Z,8.90
2018-12-21T06:27:53.773Z,8.90
2018-12-21T06:30:24.543Z,9.00
2018-12-21T06:32:55.258Z,9.00
2018-12-21T06:35:26.082Z,9.00
2018-12-21T06:37:56.853Z,9.10
2018-12-21T06:40:27.734Z,9.10
2018-12-21T06:42:58.463Z,9.20
2018-12-21T06:45:29.243Z,9.00
2018-12-21T06:47:59.964Z,9.00
2018-12-21T06:50:30.887Z,9.00
2018-12-21T06:53:01.758Z,9.10
2018-12-21T06:55:32.709Z,9.30
2018-12-21T06:58:03.638Z,9.30
2018-12-21T07:00:34.579Z,9.50
2018-12-21T07:03:05.363Z,9.60
2018-12-21T07:05:36.339Z,9.50
2018-12-21T07:08:07.138Z,9.40
2018-12-21T07:10:38.061Z,9.40
2018-12-21T07:13:08.883Z,9.40
2018-12-21T07:15:40.069Z,9.50
2018-12-21T07:18:10.808Z,9.30
2018-12-21T07:20:42.070Z,9.20
2018-12-21T07:23:12.983Z,9.20
2018-12-21T07:25:43.803Z,9.30
2018-12-21T07:28:14.587Z,9.20
2018-12-21T07:30:45.403Z,9.30
2018-12-21T07:33:16.138Z,9.20
2018-12-21T07:35:47.058Z,9.30
2018-12-21T07:38:17.843Z,9.40
2018-12-21T07:40:49.288Z,9.40
2018-12-21T07:43:20.018Z,9.50
2018-12-21T07:45:50.964Z,9.50
2018-12-21T07:48:21.779Z,9.50
2018-12-21T07:50:52.648Z,9.60
2018-12-21T07:53:23.644Z,9.50
2018-12-21T07:55:54.663Z,9.40
2018-12-21T07:58:25.519Z,9.40
2018-12-21T08:00:56.337Z,9.40
2018-12-21T08:03:27.392Z,9.20
2018-12-21T08:05:58.283Z,9.20
2018-12-21T08:08:29.157Z,9.20
2018-12-21T08:11:00.033Z,9.20
2018-12-21T08:13:30.802Z,9.20
2018-12-21T08:16:01.747Z,9.30
2018-12-21T08:18:32.537Z,9.10
2018-12-21T08:21:03.948Z,9.10
2018-12-21T08:23:34.941Z,9.20
2018-12-21T08:26:05.853Z,9.10
2018-12-21T08:28:36.707Z,9.20
2018-12-21T08:31:07.652Z,9.20
2018-12-21T08:33:39.083Z,9.20
2018-12-21T08:36:10.074Z,9.30
2018-12-21T08:38:40.940Z,9.30
2018-12-21T08:41:11.798Z,9.30
2018-12-21T08:43:42.882Z,9.30
2018-12-21T08:46:13.917Z,9.30
2018-12-21T08:48:45.108Z,9.40
2018-12-21T08:51:16.100Z,9.50
2018-12-21T08:53:52.466Z,9.50
2018-12-21T08:56:20.712Z,9.50
2018-12-21T08:58:51.582Z,9.50
2018-12-21T09:01:22.544Z,9.70
2018-12-21T09:03:53.532Z,9.90
2018-12-21T09:06:24.454Z,10.00
2018-12-21T09:08:55.257Z,10.00
2018-12-21T09:11:26.088Z,10.20
2018-12-21T09:13:56.917Z,9.90
2018-12-21T09:16:27.757Z,10.00
2018-12-21T09:18:58.573Z,10.00
2018-12-21T09:21:29.967Z,10.00
2018-12-21T09:24:01.093Z,9.80
2018-12-21T09:26:33.547Z,9.80
2018-12-21T09:29:04.322Z,9.80
2018-12-21T09:31:35.267Z,9.90
2018-12-21T09:34:06.293Z,9.80
2018-12-21T09:36:37.147Z,9.90
2018-12-21T09:39:08.811Z,10.10
2018-12-21T09:41:40.892Z,10.20
2018-12-21T09:44:11.607Z,10.20
2018-12-21T09:46:42.595Z,10.20
2018-12-21T09:49:14.181Z,10.20
2018-12-21T09:51:45.458Z,10.30
2018-12-21T09:54:16.932Z,10.30
2018-12-21T09:56:48.008Z,10.50
2018-12-21T09:59:19.081Z,10.50
2018-12-21T10:01:50.002Z,10.50
2018-12-21T10:04:20.842Z,10.60
2018-12-21T10:06:52.752Z,10.60
2018-12-21T10:09:23.507Z,10.50
2018-12-21T10:11:54.832Z,10.70
2018-12-21T10:14:26.897Z,10.80
2018-12-21T10:16:59.737Z,10.80
2018-12-21T10:19:34.367Z,10.90
2018-12-21T10:22:09.467Z,10.90
2018-12-21T10:24:45.243Z,11.00
2018-12-21T10:27:17.164Z,10.80
2018-12-21T10:30:07.592Z,10.80
2018-12-21T10:32:40.991Z,10.90
2018-12-21T10:35:12.332Z,10.90
2018-12-21T10:37:46.787Z,10.90
2018-12-21T10:40:20.301Z,10.90
2018-12-21T10:42:54.676Z,10.80
2018-12-21T10:45:27.887Z,11.10
2018-12-21T10:48:05.922Z,11.20
2018-12-21T10:50:36.843Z,11.30
2018-12-21T10:53:07.851Z,11.40
2018-12-21T10:55:38.867Z,11.40
2018-12-21T10:58:09.937Z,11.10
2018-12-21T11:00:40.876Z,11.30
2018-12-21T11:03:11.891Z,11.30
2018-12-21T11:05:42.821Z,11.40
2018-12-21T11:08:13.876Z,11.50
2018-12-21T11:10:45.894Z,11.50
2018-12-21T11:13:17.021Z,11.50
2018-12-21T11:15:47.978Z,11.60
2018-12-21T11:18:19.006Z,11.60
2018-12-21T11:20:49.872Z,11.80
2018-12-21T11:23:21.500Z,11.90
2018-12-21T11:25:53.317Z,11.80
2018-12-21T11:28:25.544Z,11.80
2018-12-21T11:30:56.812Z,11.60
2018-12-21T11:33:27.841Z,11.70
2018-12-21T11:35:58.671Z,11.90
2018-12-21T11:38:29.716Z,12.10
2018-12-21T11:41:00.625Z,12.20
2018-12-21T11:43:31.538Z,12.30
2018-12-21T11:46:02.424Z,12.30
2018-12-21T11:48:33.316Z,12.30
2018-12-21T11:51:04.172Z,12.40
2018-12-21T11:53:35.051Z,12.60
2018-12-21T11:56:06.011Z,12.70
2018-12-21T11:58:36.946Z,12.70
2018-12-21T12:01:07.817Z,12.70
2018-12-21T12:03:38.742Z,12.50
2018-12-21T12:06:09.587Z,12.60
2018-12-21T12:08:40.547Z,12.50
2018-12-21T12:11:11.314Z,12.30
2018-12-21T12:13:42.213Z,12.20
2018-12-21T12:16:12.976Z,12.30
2018-12-21T12:18:43.821Z,12.40
2018-12-21T12:21:14.691Z,12.50
2018-12-21T12:23:46.266Z,12.60
2018-12-21T12:26:17.201Z,12.60
2018-12-21T12:28:48.046Z,12.70
2018-12-21T12:31:18.851Z,12.90
2018-12-21T12:33:49.812Z,13.00
2018-12-21T12:36:20.732Z,12.90
2018-12-21T12:38:51.701Z,13.20
2018-12-21T12:41:22.472Z,12.90
2018-12-21T12:43:53.506Z,13.00
2018-12-21T12:46:24.358Z,12.90
2018-12-21T12:48:55.311Z,13.00
2018-12-21T12:51:26.116Z,13.00
2018-12-21T12:53:57.001Z,13.00
2018-12-21T12:56:27.783Z,13.10
2018-12-21T12:59:00.957Z,12.80
2018-12-21T13:01:31.986Z,12.60
2018-12-21T13:04:03.091Z,12.30
2018-12-21T13:06:33.987Z,12.40
2018-12-21T13:09:06.207Z,12.50
2018-12-21T13:11:37.231Z,12.50
2018-12-21T13:14:08.351Z,12.40
2018-12-21T13:16:39.226Z,12.40
2018-12-21T13:19:10.302Z,12.30
2018-12-21T13:21:41.521Z,12.00
2018-12-21T13:24:13.117Z,11.90
2018-12-21T13:26:44.327Z,11.90
2018-12-21T13:29:15.384Z,11.80
2018-12-21T13:31:46.337Z,11.80
2018-12-21T13:34:17.411Z,11.70
2018-12-21T13:36:48.532Z,11.60
2018-12-21T13:39:19.642Z,11.50
2018-12-21T13:41:50.378Z,11.50
2018-12-21T13:44:21.331Z,11.60
2018-12-21T13:46:52.212Z,11.40
2018-12-21T13:49:23.328Z,11.40
2018-12-21T13:51:54.331Z,11.50
2018-12-21T13:54:25.612Z,11.50
2018-12-21T13:56:57.706Z,11.40
2018-12-21T13:59:28.852Z,11.30
2018-12-21T14:01:59.928Z,11.30
2018-12-21T14:04:30.922Z,11.40
2018-12-21T14:07:01.952Z,11.30
2018-12-21T14:09:33.152Z,11.30
2018-12-21T14:12:04.248Z,11.30
2018-12-21T14:14:35.682Z,11.30
2018-12-21T14:17:07.027Z,11.20
2018-12-21T14:19:43.042Z,11.20
2018-12-21T14:22:14.251Z,11.00
2018-12-21T14:24:45.671Z,11.10
2018-12-21T14:27:16.781Z,11.10
2018-12-21T14:29:47.846Z,11.00
2018-12-21T14:32:18.939Z,11.10
2018-12-21T14:34:49.941Z,11.20
2018-12-21T14:37:21.507Z,11.10
2018-12-21T14:39:52.492Z,11.00
2018-12-21T14:42:23.412Z,10.80
2018-12-21T14:44:54.326Z,10.80
2018-12-21T14:47:25.435Z,11.10
2018-12-21T14:49:56.511Z,11.20
2018-12-21T14:52:27.638Z,11.10
2018-12-21T14:54:59.313Z,11.00
2018-12-21T14:57:30.484Z,10.80
2018-12-21T15:00:01.470Z,10.80
2018-12-21T15:02:32.447Z,10.70
2018-12-21T15:05:03.607Z,10.60
2018-12-21T15:07:34.523Z,10.60
2018-12-21T15:10:06.801Z,10.40
2018-12-21T15:12:37.872Z,10.20
2018-12-21T15:15:09.852Z,10.20
2018-12-21T15:17:40.817Z,10.20
2018-12-21T15:20:12.556Z,10.20
2018-12-21T15:22:43.547Z,10.20
2018-12-21T15:25:15.170Z,10.10
2018-12-21T15:27:46.177Z,10.20
2018-12-21T15:30:20.137Z,10.30
2018-12-21T15:32:51.090Z,10.40
2018-12-21T15:35:22.442Z,10.40
2018-12-21T15:37:53.562Z,10.40
2018-12-21T15:40:24.558Z,10.40
2018-12-21T15:42:55.632Z,10.50
2018-12-21T15:45:26.724Z,10.50
2018-12-21T15:47:57.737Z,10.50
2018-12-21T15:50:28.862Z,10.50
2018-12-21T15:53:00.473Z,10.40
2018-12-21T15:55:31.433Z,10.40
2018-12-21T15:58:02.653Z,10.30
2018-12-21T16:00:33.717Z,10.30
2018-12-21T16:03:06.092Z,10.30
2018-12-21T16:05:37.252Z,10.20
2018-12-21T16:08:08.207Z,10.30
2018-12-21T16:10:39.173Z,10.40
2018-12-21T16:13:16.677Z,10.40
2018-12-21T16:15:47.768Z,10.40
2018-12-21T16:18:18.547Z,10.40
2018-12-21T16:20:52.893Z,10.30
2018-12-21T16:23:23.658Z,10.30
2018-12-21T16:26:03.256Z,10.20
2018-12-21T16:28:28.294Z,10.20
2018-12-21T16:30:59.178Z,10.20
2018-12-21T16:33:30.032Z,10.20
2018-12-21T16:36:01.333Z,10.20
2018-12-21T16:38:32.564Z,10.20
2018-12-21T16:41:04.405Z,10.20
2018-12-21T16:43:35.683Z,10.30
2018-12-21T16:46:06.832Z,10.20
2018-12-21T16:48:37.617Z,10.20
2018-12-21T16:51:08.487Z,10.20
2018-12-21T16:53:39.632Z,10.20
2018-12-21T16:56:12.633Z,10.20
2018-12-21T16:58:43.895Z,10.30
2018-12-21T17:01:14.853Z,10.20
2018-12-21T17:03:45.852Z,10.20
2018-12-21T17:06:16.818Z,10.20
2018-12-21T17:08:47.715Z,10.30
2018-12-21T17:11:18.897Z,10.20
2018-12-21T17:13:49.812Z,10.30
2018-12-21T17:16:27.062Z,10.30
2018-12-21T17:18:58.083Z,10.20
2018-12-21T17:21:29.093Z,10.30
2018-12-21T17:24:00.001Z,10.30
2018-12-21T17:26:31.398Z,10.20
2018-12-21T17:29:02.723Z,10.20
2018-12-21T17:31:33.747Z,10.10
2018-12-21T17:34:04.751Z,10.10
2018-12-21T17:36:35.752Z,10.10
2018-12-21T17:39:08.882Z,10.20
2018-12-21T17:41:39.787Z,10.20
2018-12-21T17:44:10.568Z,10.10
2018-12-21T17:46:41.532Z,10.10
2018-12-21T17:49:12.392Z,10.00
2018-12-21T17:51:43.583Z,9.90
2018-12-21T17:54:15.093Z,9.90
2018-12-21T17:56:46.122Z,9.90
2018-12-21T17:59:17.603Z,9.80
2018-12-21T18:01:48.983Z,9.80
2018-12-21T18:04:26.140Z,9.80
2018-12-21T18:06:57.277Z,9.80
2018-12-21T18:09:32.503Z,9.80
2018-12-21T18:12:03.702Z,9.70
2018-12-21T18:14:34.642Z,9.70
2018-12-21T18:17:06.397Z,9.60
2018-12-21T18:19:37.427Z,9.70
2018-12-21T18:22:14.838Z,9.70
2018-12-21T18:24:47.164Z,9.60
2018-12-21T18:27:18.723Z,9.60
2018-12-21T18:29:49.842Z,9.60
2018-12-21T18:32:25.642Z,9.50
2018-12-21T18:34:58.743Z,9.60
2018-12-21T18:37:30.247Z,9.60
2018-12-21T18:40:01.309Z,9.60
2018-12-21T18:42:32.602Z,9.70
2018-12-21T18:45:04.348Z,9.70
2018-12-21T18:47:35.592Z,9.60
2018-12-21T18:50:06.668Z,9.60
2018-12-21T18:52:38.947Z,9.60
2018-12-21T18:55:11.987Z,9.60
2018-12-21T18:57:43.317Z,9.60
2018-12-21T19:00:16.557Z,9.60
2018-12-21T19:02:48.834Z,9.60
2018-12-21T19:05:19.843Z,9.60
2018-12-21T19:07:51.097Z,9.50
2018-12-21T19:10:22.107Z,9.50
2018-12-21T19:12:53.295Z,9.60
2018-12-21T19:15:24.418Z,9.50
2018-12-21T19:17:55.580Z,9.50
2018-12-21T19:20:26.658Z,9.50
2018-12-21T19:22:57.838Z,9.50
2018-12-21T19:25:28.808Z,9.50
2018-12-21T19:28:00.604Z,9.50
2018-12-21T19:30:31.872Z,9.50
2018-12-21T19:33:03.018Z,9.50
2018-12-21T19:35:33.993Z,9.50
2018-12-21T19:38:05.592Z,9.40
2018-12-21T19:40:36.733Z,9.50
2018-12-21T19:43:08.150Z,9.50
2018-12-21T19:45:39.173Z,9.50
2018-12-21T19:48:10.301Z,9.50
2018-12-21T19:50:41.458Z,9.50
2018-12-21T19:53:12.873Z,9.50
2018-12-21T19:55:54.883Z,9.50
2018-12-21T19:58:27.252Z,9.50
2018-12-21T20:00:58.237Z,9.50
2018-12-21T20:03:29.357Z,9.50
2018-12-21T20:06:00.532Z,9.50
2018-12-21T20:08:31.798Z,9.50
2018-12-21T20:11:02.949Z,9.50
2018-12-21T20:13:34.566Z,9.50
2018-12-21T20:16:06.432Z,9.50
2018-12-21T20:18:37.457Z,9.40
2018-12-21T20:21:08.602Z,9.40
2018-12-21T20:23:39.844Z,9.40
2018-12-21T20:26:10.943Z,9.40
2018-12-21T20:28:42.443Z,9.40
2018-12-21T20:31:14.081Z,9.40
2018-12-21T20:33:45.822Z,9.40
2018-12-21T20:36:16.882Z,9.30
2018-12-21T20:38:48.462Z,9.30
2018-12-21T20:41:19.472Z,9.30
2018-12-21T20:43:50.597Z,9.30
2018-12-21T20:46:21.567Z,9.20
2018-12-21T20:48:53.505Z,9.30
2018-12-21T20:51:24.422Z,9.40
2018-12-21T20:53:55.541Z,9.30
2018-12-21T20:56:26.471Z,9.30
2018-12-21T20:59:02.951Z,9.30
2018-12-21T21:01:34.261Z,9.40
2018-12-21T21:04:06.486Z,9.40
2018-12-21T21:06:37.696Z,9.50
2018-12-21T21:09:11.256Z,9.50
2018-12-21T21:11:42.526Z,9.50
2018-12-21T21:14:14.976Z,9.50
2018-12-21T21:16:46.006Z,9.40
2018-12-21T21:19:17.166Z,9.40
2018-12-21T21:21:48.300Z,9.40
2018-12-21T21:24:19.395Z,9.30
2018-12-21T21:26:50.400Z,9.20
2018-12-21T21:29:21.910Z,9.30
2018-12-21T21:31:52.960Z,9.30
2018-12-21T21:34:24.050Z,9.30
2018-12-21T21:36:55.280Z,9.30
2018-12-21T21:39:26.308Z,9.20
2018-12-21T21:41:57.234Z,9.30
2018-12-21T21:44:28.385Z,9.10
2018-12-21T21:46:59.375Z,9.30
2018-12-21T21:49:30.476Z,9.20
2018-12-21T21:52:01.415Z,9.20
2018-12-21T21:54:32.360Z,9.10
2018-12-21T21:57:04.525Z,9.20
2018-12-21T21:59:35.615Z,9.10
2018-12-21T22:02:06.846Z,9.10
2018-12-21T22:04:37.790Z,9.20
2018-12-21T22:07:08.960Z,9.30
2018-12-21T22:09:40.107Z,9.30
2018-12-21T22:12:11.104Z,9.20
2018-12-21T22:14:45.255Z,9.20
2018-12-21T22:17:16.180Z,9.30
2018-12-21T22:19:47.269Z,9.30
2018-12-21T22:22:18.156Z,9.30
2018-12-21T22:24:49.184Z,9.20
2018-12-21T22:27:20.259Z,9.20
2018-12-21T22:29:51.609Z,9.10
2018-12-21T22:32:22.884Z,9.10
2018-12-21T22:34:53.959Z,9.20
2018-12-21T22:37:24.975Z,9.20
2018-12-21T22:39:56.459Z,9.20
2018-12-21T22:42:27.453Z,9.20
2018-12-21T22:44:58.513Z,9.10
2018-12-21T22:47:31.199Z,9.10
2018-12-21T22:50:02.177Z,9.10
2018-12-21T22:52:33.209Z,9.00
2018-12-21T22:55:04.970Z,8.90
2018-12-21T22:57:36.033Z,8.70
2018-12-21T23:00:13.264Z,8.70
2018-12-21T23:02:44.434Z,8.70
2018-12-21T23:05:16.373Z,8.60
2018-12-21T23:07:47.443Z,8.60
2018-12-21T23:10:18.673Z,8.60
2018-12-21T23:12:49.643Z,8.70
2018-12-21T23:15:20.685Z,8.70
2018-12-21T23:17:51.618Z,8.70
2018-12-21T23:20:22.657Z,8.60
2018-12-21T23:22:53.528Z,8.60
2018-12-21T23:25:24.612Z,8.60
2018-12-21T23:27:55.488Z,8.60
2018-12-21T23:30:27.088Z,8.60
2018-12-21T23:32:58.083Z,8.50
2018-12-21T23:35:29.367Z,8.50
2018-12-21T23:38:00.248Z,8.50
2018-12-21T23:40:31.138Z,8.40
2018-12-21T23:43:02.058Z,8.40
2018-12-21T23:45:33.238Z,8.40
2018-12-21T23:48:04.128Z,8.30
2018-12-21T23:50:35.013Z,8.30
2018-12-21T23:53:05.914Z,8.20
2018-12-21T23:55:36.783Z,8.10
2018-12-21T23:58:13.637Z,8.10
